Time;durP1;ratioP1;P1;durP2;ratioP2;P2;SDS_P1;SDS_P2;PMS_P1;PMS_P2;Temp;Humidity;BMP_temperature;BMP_pressure;BME280_temperature;BME280_humidity;BME280_pressure;Samples;Min_cycle;Max_cycle;Signal;HPM_P1;HPM_P2
2022/09/06 00:00:11;;;;;;;;;7.50;5.75;;;;;22.24;62.41;100857.41;5075876;27;45455;-52
2022/09/06 00:02:37;;;;;;;;;6.00;5.00;;;;;22.24;62.94;100860.06;5073303;27;45330;-53
2022/09/06 00:05:03;;;;;;;;;6.75;5.00;;;;;22.24;62.52;100868.06;5075220;27;45340;-54
2022/09/06 00:07:29;;;;;;;;;5.00;5.00;;;;;22.24;62.61;100872.53;5074582;27;45482;-53
2022/09/06 00:09:55;;;;;;;;;5.50;5.00;;;;;22.24;62.67;100865.41;5078738;27;45317;-54
2022/09/06 00:12:21;;;;;;;;;5.00;5.00;;;;;22.25;62.51;100869.75;5075269;27;45734;-53
2022/09/06 00:14:47;;;;;;;;;5.75;5.00;;;;;22.24;62.18;100875.19;5075122;27;45514;-55
2022/09/06 00:17:12;;;;;;;;;4.00;4.00;;;;;22.23;62.31;100869.03;5077996;27;67155;-53
2022/09/06 00:19:37;;;;;;;;;5.00;4.00;;;;;22.21;61.62;100862.13;5050819;28;61241;-55
2022/09/06 00:22:03;;;;;;;;;3.25;3.25;;;;;22.18;62.14;100876.50;5071308;27;63838;-53
2022/09/06 00:24:28;;;;;;;;;6.00;4.00;;;;;22.18;62.41;100873.84;5073953;27;45831;-52
2022/09/06 00:26:53;;;;;;;;;6.00;3.75;;;;;22.16;61.93;100879.28;5069988;27;45419;-52
2022/09/06 00:29:19;;;;;;;;;5.00;4.00;;;;;22.15;61.95;100877.59;5056086;27;45446;-54
2022/09/06 00:31:44;;;;;;;;;4.50;4.50;;;;;22.13;62.35;100879.53;5074628;27;45656;-54
2022/09/06 00:34:10;;;;;;;;;5.00;4.00;;;;;22.13;62.09;100884.00;5071060;27;45382;-53
2022/09/06 00:36:35;;;;;;;;;7.00;5.00;;;;;22.13;61.60;100878.66;5079230;27;45358;-53
2022/09/06 00:39:00;;;;;;;;;7.00;6.75;;;;;22.13;62.20;100884.00;5054517;27;72287;-52
2022/09/06 00:41:26;;;;;;;;;7.00;6.25;;;;;22.13;62.22;100884.00;5079233;27;45340;-54
2022/09/06 00:43:51;;;;;;;;;6.75;4.75;;;;;22.12;61.96;100884.97;5072775;27;47600;-53
2022/09/06 00:46:19;;;;;;;;;6.25;5.00;;;;;22.12;62.39;100892.97;5071866;27;46511;-54
2022/09/06 00:48:46;;;;;;;;;7.00;6.00;;;;;22.11;62.46;100888.59;5076068;28;46827;-54
2022/09/06 00:51:14;;;;;;;;;7.25;6.50;;;;;22.12;62.63;100892.97;5052223;28;45487;-53
2022/09/06 00:53:40;;;;;;;;;7.00;5.00;;;;;22.12;62.49;100890.31;5057640;28;45339;-52
2022/09/06 00:56:05;;;;;;;;;5.50;5.00;;;;;22.11;62.19;100885.94;5078664;27;45268;-54
2022/09/06 00:58:31;;;;;;;;;5.00;4.00;;;;;22.10;61.55;100881.56;5077873;27;59561;-53
2022/09/06 01:00:56;;;;;;;;;6.50;5.75;;;;;22.08;61.66;100881.69;5078325;27;45374;-50
2022/09/06 01:03:23;;;;;;;;;8.00;6.75;;;;;22.07;62.22;100887.13;5076007;27;45463;-52
2022/09/06 01:06:16;;;;;;;;;5.00;5.00;;;;;22.07;61.97;100882.63;5050321;28;45244;-51
2022/09/06 01:09:06;;;;;;;;;7.00;6.00;;;;;22.08;62.57;100888.81;5068495;28;45408;-54
2022/09/06 01:12:03;;;;;;;;;9.50;6.50;;;;;22.06;62.48;100875.63;5069067;27;45208;-54
2022/09/06 01:14:28;;;;;;;;;5.25;5.25;;;;;22.06;62.24;100877.41;5068281;28;45343;-55
2022/09/06 01:17:12;;;;;;;;;5.00;5.00;;;;;22.03;61.60;100881.16;5077040;27;45487;-54
2022/09/06 01:19:54;;;;;;;;;1.00;1.00;;;;;22.04;62.54;100874.84;5077230;27;45507;-54
2022/09/06 01:23:05;;;;;;;;;8.25;7.00;;;;;22.05;61.67;100873.91;5070694;27;45388;-53
2022/09/06 01:25:35;;;;;;;;;6.75;5.00;;;;;22.03;62.29;100877.63;5046246;27;45381;-53
2022/09/06 01:28:13;;;;;;;;;4.50;4.50;;;;;22.03;62.03;100883.84;5059625;28;45485;-55
2022/09/06 01:30:46;;;;;;;;;5.50;5.25;;;;;22.01;61.65;100872.44;5074683;27;45553;-53
2022/09/06 01:33:21;;;;;;;;;7.25;5.75;;;;;22.02;62.39;100873.28;5048820;28;45374;-55
2022/09/06 01:35:53;;;;;;;;;9.75;6.75;;;;;22.03;62.59;100866.97;5056582;28;45493;-54
2022/09/06 01:38:19;;;;;;;;;5.75;5.75;;;;;22.02;62.20;100865.28;5066610;27;45280;-53
2022/09/06 01:40:44;;;;;;;;;5.00;5.00;;;;;22.02;61.82;100871.47;5055175;28;63505;-53
2022/09/06 01:43:21;;;;;;;;;8.50;7.00;;;;;22.00;62.55;100874.22;5069413;27;65384;-51
2022/09/06 01:46:23;;;;;;;;;5.25;4.75;;;;;22.02;62.23;100876.78;5073720;28;45797;-52
2022/09/06 01:49:07;;;;;;;;;6.75;6.00;;;;;22.00;61.57;100874.22;5046983;28;45583;-55
2022/09/06 01:51:58;;;;;;;;;6.50;5.50;;;;;22.00;61.89;100876.91;5076073;28;46329;-54
2022/09/06 01:55:01;;;;;;;;;9.00;6.75;;;;;22.01;62.01;100872.44;5074206;28;45799;-53
2022/09/06 01:58:00;;;;;;;;;7.00;4.00;;;;;22.01;61.75;100872.44;5074083;27;45399;-55
2022/09/06 02:00:25;;;;;;;;;8.25;7.00;;;;;21.99;61.69;100864.56;5073543;27;47124;-54
2022/09/06 02:03:07;;;;;;;;;6.75;3.50;;;;;22.00;61.82;100868.06;5073719;27;47225;-55
2022/09/06 02:05:56;;;;;;;;;6.50;6.00;;;;;22.00;61.71;100868.06;5076604;27;45774;-54
2022/09/06 02:08:33;;;;;;;;;9.00;6.75;;;;;22.00;61.70;100865.41;5077992;27;45518;-55
2022/09/06 02:11:02;;;;;;;;;8.75;8.25;;;;;22.00;61.59;100862.72;5052202;28;45442;-55
2022/09/06 02:13:31;;;;;;;;;9.75;7.25;;;;;22.00;61.95;100858.25;5056600;28;45882;-54
2022/09/06 02:16:01;;;;;;;;;6.75;6.25;;;;;22.00;61.57;100852.06;5067341;27;45382;-52
2022/09/06 02:18:58;;;;;;;;;9.00;6.75;;;;;21.99;61.54;100850.34;5063419;28;45456;-55
2022/09/06 02:21:28;;;;;;;;;7.25;7.25;;;;;21.99;62.06;100845.91;5044819;27;45543;-54
2022/09/06 02:23:56;;;;;;;;;8.25;6.00;;;;;22.00;61.67;100849.41;5064864;27;46474;-53
2022/09/06 02:26:27;;;;;;;;;7.25;6.50;;;;;22.00;61.88;100858.25;5057786;28;45421;-54
2022/09/06 02:28:54;;;;;;;;;9.75;7.75;;;;;21.98;61.10;100865.50;5066900;27;45337;-52
2022/09/06 02:31:29;;;;;;;;;8.50;8.00;;;;;21.97;61.35;100863.81;5058096;27;45190;-51
2022/09/06 02:33:55;;;;;;;;;8.75;8.25;;;;;21.97;61.40;100863.81;5061131;27;46052;-50
2022/09/06 02:36:20;;;;;;;;;8.50;8.00;;;;;21.95;61.67;100865.72;5055187;28;60423;-50
2022/09/06 02:38:46;;;;;;;;;9.00;8.50;;;;;21.95;61.14;100868.38;5063868;27;45205;-54
2022/09/06 02:41:19;;;;;;;;;11.50;7.00;;;;;21.92;62.02;100852.63;5069393;27;45255;-51
2022/09/06 02:43:46;;;;;;;;;8.25;8.00;;;;;21.93;61.94;100858.81;5076232;27;48353;-53
2022/09/06 02:46:11;;;;;;;;;7.75;6.00;;;;;21.91;61.99;100850.94;5073857;27;63690;-53
2022/09/06 02:48:37;;;;;;;;;9.00;7.50;;;;;21.90;61.59;100854.56;5065803;27;62501;-53
2022/09/06 02:51:07;;;;;;;;;9.00;7.50;;;;;21.90;61.90;100849.25;5072917;27;58450;-53
2022/09/06 02:53:33;;;;;;;;;6.75;6.25;;;;;21.90;61.34;100859.91;5079300;27;45368;-54
2022/09/06 02:55:58;;;;;;;;;8.00;7.75;;;;;21.88;61.77;100858.28;5068427;27;57873;-54
2022/09/06 02:58:24;;;;;;;;;9.00;9.00;;;;;21.87;61.42;100856.56;5078981;27;45259;-53
2022/09/06 03:00:51;;;;;;;;;9.50;7.00;;;;;21.84;61.88;100852.34;5056437;28;45188;-52
2022/09/06 03:03:16;;;;;;;;;8.75;6.75;;;;;21.84;61.54;100843.50;5073597;27;46327;-55
2022/09/06 03:05:45;;;;;;;;;7.00;6.00;;;;;21.85;61.21;100839.84;5079559;27;45295;-54
2022/09/06 03:08:11;;;;;;;;;7.75;7.00;;;;;21.83;61.30;100852.44;5069852;28;45598;-51
2022/09/06 03:10:36;;;;;;;;;8.50;8.00;;;;;21.84;61.24;100849.66;5074487;27;65185;-54
2022/09/06 03:13:02;;;;;;;;;11.00;6.25;;;;;21.80;61.61;100865.03;5075705;27;46888;-51
2022/09/06 03:15:27;;;;;;;;;7.75;7.25;;;;;21.78;61.30;100864.28;5074203;27;68662;-53
2022/09/06 03:17:56;;;;;;;;;12.25;8.75;;;;;21.74;61.54;100865.50;5078660;27;45399;-56
2022/09/06 03:20:21;;;;;;;;;8.50;8.00;;;;;21.74;61.65;100869.94;5068282;27;45581;-54
2022/09/06 03:22:47;;;;;;;;;9.00;8.25;;;;;21.71;61.30;100871.03;5078893;27;60878;-54
2022/09/06 03:25:12;;;;;;;;;10.00;8.75;;;;;21.75;61.57;100882.31;5071242;27;45348;-54
2022/09/06 03:27:38;;;;;;;;;10.25;9.00;;;;;21.75;61.26;100875.16;5078847;27;45658;-53
2022/09/06 03:30:04;;;;;;;;;9.25;8.50;;;;;21.75;61.79;100869.00;5078786;27;63095;-53
2022/09/06 03:32:30;;;;;;;;;10.25;7.25;;;;;21.75;61.50;100874.31;5047715;28;47189;-55
2022/09/06 03:34:55;;;;;;;;;8.50;8.50;;;;;21.74;61.16;100872.59;5047181;28;58183;-50
2022/09/06 03:37:21;;;;;;;;;7.75;7.75;;;;;21.72;61.66;100882.53;5050361;28;45631;-55
2022/09/06 03:39:46;;;;;;;;;7.75;7.50;;;;;21.70;61.95;100887.13;5047002;28;45357;-54
2022/09/06 03:42:11;;;;;;;;;8.50;6.25;;;;;21.68;61.19;100897.88;5049067;28;45995;-54
2022/09/06 03:44:37;;;;;;;;;8.00;8.00;;;;;21.68;61.77;100895.22;5049397;28;61713;-52
2022/09/06 03:47:02;;;;;;;;;11.25;9.75;;;;;21.68;61.84;100897.03;5057592;28;45412;-54
2022/09/06 03:49:28;;;;;;;;;10.00;8.25;;;;;21.66;61.48;100894.47;5057501;28;45464;-54
2022/09/06 03:51:53;;;;;;;;;11.25;9.50;;;;;21.63;61.28;100896.50;5052862;28;46898;-54
2022/09/06 03:54:18;;;;;;;;;10.75;10.75;;;;;21.66;61.83;100913.13;5051174;28;45356;-54
2022/09/06 03:56:44;;;;;;;;;11.25;9.75;;;;;21.65;61.56;100910.56;5051139;28;53349;-53
2022/09/06 03:59:09;;;;;;;;;7.50;6.25;;;;;21.64;61.42;100920.38;5055415;28;62483;-54
2022/09/06 04:01:34;;;;;;;;;12.50;7.75;;;;;21.64;61.45;100923.03;5050437;28;72152;-54
2022/09/06 04:04:00;;;;;;;;;7.75;7.00;;;;;21.63;61.14;100918.66;5054419;28;62520;-54
2022/09/06 04:06:26;;;;;;;;;9.00;6.50;;;;;21.60;60.97;100917.06;5053204;28;46053;-53
2022/09/06 04:08:51;;;;;;;;;12.00;7.75;;;;;21.58;61.18;100921.66;5055730;28;45490;-55
2022/09/06 04:11:17;;;;;;;;;11.75;10.00;;;;;21.57;60.90;100919.09;5053284;28;48923;-54
2022/09/06 04:13:42;;;;;;;;;8.50;8.25;;;;;21.55;60.85;100924.53;5048482;28;45445;-53
2022/09/06 04:16:07;;;;;;;;;11.25;8.50;;;;;21.50;61.16;100926.66;5057366;28;45735;-54
2022/09/06 04:18:33;;;;;;;;;9.75;6.75;;;;;21.52;61.11;100934.53;5056323;28;63426;-52
2022/09/06 04:20:58;;;;;;;;;9.25;8.00;;;;;21.51;60.84;100936.34;5056778;28;45923;-55
2022/09/06 04:23:25;;;;;;;;;8.00;7.25;;;;;21.53;61.31;100941.56;5047746;28;63034;-53
2022/09/06 04:25:53;;;;;;;;;8.00;8.00;;;;;21.55;61.42;100947.66;5045502;28;46829;-54
2022/09/06 04:28:20;;;;;;;;;10.50;9.00;;;;;21.54;60.69;100943.28;5052065;28;45277;-52
2022/09/06 04:30:57;;;;;;;;;9.50;7.25;;;;;21.57;61.37;100951.91;5056760;28;47160;-54
2022/09/06 04:33:24;;;;;;;;;9.00;9.00;;;;;21.56;61.34;100958.19;5074483;27;45490;-53
2022/09/06 04:35:55;;;;;;;;;10.25;6.75;;;;;21.56;61.27;100962.66;5072351;27;45404;-53
2022/09/06 04:38:21;;;;;;;;;7.00;7.00;;;;;21.54;60.93;100948.59;5072803;28;45241;-54
2022/09/06 04:40:47;;;;;;;;;7.75;7.75;;;;;21.51;60.93;100948.81;5052918;28;46662;-55
2022/09/06 04:43:12;;;;;;;;;9.75;7.00;;;;;21.53;61.29;100954.88;5074339;27;45513;-55
2022/09/06 04:45:37;;;;;;;;;9.75;8.75;;;;;21.52;60.59;100953.19;5076917;27;45448;-54
2022/09/06 04:48:03;;;;;;;;;9.50;7.50;;;;;21.50;60.37;100958.63;5043332;28;45558;-53
2022/09/06 04:50:28;;;;;;;;;9.00;9.00;;;;;21.49;60.60;100966.72;5073870;27;45498;-55
2022/09/06 04:52:54;;;;;;;;;10.75;8.00;;;;;21.50;61.00;100965.75;5073553;27;63392;-54
2022/09/06 04:55:19;;;;;;;;;8.25;7.00;;;;;21.48;61.03;100970.31;5076525;27;63287;-53
2022/09/06 04:57:44;;;;;;;;;9.00;8.00;;;;;21.46;60.70;100970.44;5072805;27;61750;-56
2022/09/06 05:00:10;;;;;;;;;7.25;6.00;;;;;21.45;60.50;100970.53;5072278;27;45542;-53
2022/09/06 05:02:36;;;;;;;;;8.50;7.00;;;;;21.43;60.30;100974.13;5074120;27;45557;-53
2022/09/06 05:05:01;;;;;;;;;6.75;5.25;;;;;21.42;60.20;100968.91;5071927;27;45245;-53
2022/09/06 05:07:27;;;;;;;;;5.75;5.75;;;;;21.41;59.51;100973.38;5046386;28;45542;-55
2022/09/06 05:09:52;;;;;;;;;8.00;6.50;;;;;21.39;59.47;100969.13;5064406;27;61682;-55
2022/09/06 05:12:17;;;;;;;;;5.75;4.25;;;;;21.38;58.98;100972.75;5074775;27;62958;-52
2022/09/06 05:14:42;;;;;;;;;7.00;6.00;;;;;21.36;58.84;100964.00;5076917;27;56777;-53
2022/09/06 05:17:08;;;;;;;;;6.50;5.50;;;;;21.35;59.01;100960.47;5076438;28;65004;-52
2022/09/06 05:19:33;;;;;;;;;5.50;5.50;;;;;21.33;58.80;100956.22;5050539;28;59093;-53
2022/09/06 05:21:58;;;;;;;;;6.25;4.25;;;;;21.31;58.31;100964.31;5075802;27;45181;-55
2022/09/06 05:24:24;;;;;;;;;5.00;5.00;;;;;21.31;58.56;100966.13;5074996;27;63627;-52
2022/09/06 05:26:49;;;;;;;;;9.25;5.50;;;;;21.30;58.65;100964.41;5064032;27;68523;-53
2022/09/06 05:29:14;;;;;;;;;5.50;5.00;;;;;21.30;58.18;100975.06;5071760;27;54927;-48
2022/09/06 05:31:40;;;;;;;;;6.00;6.00;;;;;21.33;58.49;100974.88;5063650;27;61518;-50
2022/09/06 05:34:05;;;;;;;;;9.50;6.00;;;;;21.35;58.56;100972.94;5066912;28;45263;-46
2022/09/06 05:36:31;;;;;;;;;8.00;6.75;;;;;21.36;58.28;100970.19;5069078;27;45654;-48
2022/09/06 05:38:56;;;;;;;;;6.25;6.00;;;;;21.41;58.60;100972.53;5070705;28;46929;-47
2022/09/06 05:41:23;;;;;;;;;6.25;5.25;;;;;21.44;58.44;100972.31;5075579;27;45564;-50
2022/09/06 05:43:48;;;;;;;;;7.00;5.00;;;;;21.46;58.68;100973.13;5073144;28;45617;-47
2022/09/06 05:46:15;;;;;;;;;7.75;7.25;;;;;21.49;58.12;100972.88;5075763;27;53545;-48
2022/09/06 05:48:40;;;;;;;;;12.00;7.75;;;;;21.49;58.46;100964.88;5078304;27;46145;-47
2022/09/06 05:51:08;;;;;;;;;7.75;7.75;;;;;21.50;58.20;100960.44;5075438;27;49606;-49
2022/09/06 05:53:40;;;;;;;;;8.25;6.00;;;;;21.53;58.04;100955.75;5079147;27;45411;-47
2022/09/06 05:56:06;;;;;;;;;10.50;6.25;;;;;21.55;58.01;100964.47;5065606;27;45461;-46
2022/09/06 05:58:32;;;;;;;;;12.00;6.75;;;;;21.58;58.27;100955.41;5084459;27;46136;-51
2022/09/06 06:01:17;;;;;;;;;8.25;6.75;;;;;21.63;57.94;100957.75;5067833;28;45623;-47
2022/09/06 06:03:49;;;;;;;;;9.50;5.50;;;;;21.66;58.29;100960.22;5069558;28;45528;-49
2022/09/06 06:06:15;;;;;;;;;6.00;6.00;;;;;21.70;58.25;100957.22;5062686;28;45596;-48
2022/09/06 06:08:40;;;;;;;;;11.75;8.00;;;;;21.74;57.63;100955.19;5044969;28;48155;-48
2022/09/06 06:11:05;;;;;;;;;11.25;10.00;;;;;21.77;58.04;100953.16;5063160;28;45325;-57
2022/09/06 06:13:33;;;;;;;;;9.25;8.75;;;;;21.81;58.19;100953.78;5077418;27;45617;-48
2022/09/06 06:16:00;;;;;;;;;7.00;7.00;;;;;21.87;58.22;100963.16;5081564;28;45369;-51
2022/09/06 06:18:25;;;;;;;;;10.75;6.00;;;;;21.90;58.17;100952.28;5068680;27;46336;-46
2022/09/06 06:20:50;;;;;;;;;12.75;10.00;;;;;21.93;58.25;100950.25;5080639;28;54096;-46
2022/09/06 06:23:16;;;;;;;;;19.50;10.00;;;;;21.98;58.18;100949.94;5059200;28;45363;-49
2022/09/06 06:25:41;;;;;;;;;21.75;11.00;;;;;22.02;57.79;100946.06;5071546;27;45246;-52
2022/09/06 06:28:07;;;;;;;;;7.25;7.25;;;;;22.04;57.03;100945.97;5076364;27;45389;-49
2022/09/06 06:30:32;;;;;;;;;9.00;7.00;;;;;22.09;57.05;100933.16;5069111;27;45479;-47
2022/09/06 06:32:57;;;;;;;;;7.00;5.25;;;;;22.11;56.82;100934.75;5060030;28;45418;-50
2022/09/06 06:35:24;;;;;;;;;6.00;5.25;;;;;22.15;56.99;100938.91;5053805;28;61769;-45
2022/09/06 06:37:49;;;;;;;;;7.00;5.75;;;;;22.20;56.94;100935.91;5050107;28;47271;-49
2022/09/06 06:40:15;;;;;;;;;12.75;9.25;;;;;22.24;56.73;100939.19;5053003;28;45493;-48
2022/09/06 06:42:40;;;;;;;;;11.50;10.00;;;;;22.28;56.33;100940.72;5054326;28;45360;-47
2022/09/06 06:45:06;;;;;;;;;12.00;9.00;;;;;22.32;56.54;100935.03;5052378;28;45357;-45
2022/09/06 06:47:31;;;;;;;;;9.00;5.00;;;;;22.37;56.34;100938.22;5053309;28;46014;-47
2022/09/06 06:49:57;;;;;;;;;7.75;7.75;;;;;22.43;56.12;100944.91;5073938;27;45700;-49
2022/09/06 06:52:23;;;;;;;;;7.50;7.00;;;;;22.48;56.20;100952.56;5046247;28;45357;-50
2022/09/06 06:54:48;;;;;;;;;7.25;5.75;;;;;22.50;56.00;100955.97;5059548;28;45379;-47
2022/09/06 06:57:14;;;;;;;;;9.50;6.75;;;;;22.53;55.73;100947.75;5056834;28;47171;-56
2022/09/06 06:59:39;;;;;;;;;6.00;5.75;;;;;22.54;55.73;100936.09;5059186;28;45198;-56
2022/09/06 07:02:05;;;;;;;;;4.50;4.00;;;;;22.55;55.74;100933.31;5059930;28;45358;-55
2022/09/06 07:04:30;;;;;;;;;7.25;5.75;;;;;22.57;55.55;100943.88;5059462;28;45614;-56
2022/09/06 07:06:56;;;;;;;;;4.50;4.50;;;;;22.58;55.59;100947.44;5054217;28;64875;-55
2022/09/06 07:09:22;;;;;;;;;10.25;6.00;;;;;22.58;55.15;100937.59;5056020;28;45360;-56
2022/09/06 07:11:48;;;;;;;;;5.00;5.00;;;;;22.59;54.77;100939.28;5052597;28;45272;-58
2022/09/06 07:14:15;;;;;;;;;5.00;4.25;;;;;22.59;54.77;100936.63;5043271;28;45422;-58
2022/09/06 07:16:41;;;;;;;;;4.00;4.00;;;;;22.61;54.91;100940.06;5055364;28;46585;-54
2022/09/06 07:19:06;;;;;;;;;5.25;5.00;;;;;22.61;54.21;100929.38;5059366;28;45313;-56
2022/09/06 07:21:32;;;;;;;;;5.50;5.25;;;;;22.59;54.65;100928.63;5047550;28;45331;-56
2022/09/06 07:23:57;;;;;;;;;7.75;5.25;;;;;22.60;53.98;100927.66;5059130;28;45588;-54
2022/09/06 07:26:28;;;;;;;;;6.25;5.00;;;;;22.60;54.14;100921.50;5059723;28;61286;-55
2022/09/06 07:28:55;;;;;;;;;6.75;5.00;;;;;22.60;54.19;100930.31;5056740;28;45813;-56
2022/09/06 07:31:20;;;;;;;;;5.25;4.75;;;;;22.62;54.07;100933.72;5053811;27;45338;-56
2022/09/06 07:33:46;;;;;;;;;7.25;4.50;;;;;22.65;53.85;100936.19;5076868;27;45416;-56
2022/09/06 07:36:11;;;;;;;;;7.00;5.25;;;;;22.69;54.17;100931.47;5059259;28;47087;-57
2022/09/06 07:38:37;;;;;;;;;9.00;6.00;;;;;22.75;54.32;100939.88;5078405;28;45332;-56
2022/09/06 07:41:09;;;;;;;;;11.50;6.75;;;;;22.78;54.09;100922.75;5041575;28;45746;-56
2022/09/06 07:43:35;;;;;;;;;9.75;7.25;;;;;22.84;53.84;100926.78;5056830;28;45388;-57
2022/09/06 07:46:02;;;;;;;;;9.50;8.00;;;;;22.86;53.87;100936.38;5073651;28;45343;-57
2022/09/06 07:48:33;;;;;;;;;5.75;4.75;;;;;22.90;53.65;100947.66;5079073;28;45468;-56
2022/09/06 07:51:06;;;;;;;;;4.75;4.50;;;;;22.93;53.32;100952.78;5076443;28;45493;-56
2022/09/06 07:53:32;;;;;;;;;7.25;5.75;;;;;22.93;52.96;100945.63;5079415;28;45241;-57
2022/09/06 07:56:00;;;;;;;;;4.00;4.00;;;;;22.95;52.24;100956.19;5079203;28;46283;-57
2022/09/06 07:58:27;;;;;;;;;4.75;3.50;;;;;22.95;52.79;100966.88;5060834;28;45304;-57
2022/09/06 08:00:53;;;;;;;;;5.00;5.00;;;;;22.92;52.94;100965.25;5078981;28;45351;-57
2022/09/06 08:03:18;;;;;;;;;8.00;5.25;;;;;22.94;53.05;100968.66;5060544;28;45542;-57
2022/09/06 08:05:47;;;;;;;;;4.75;4.00;;;;;22.97;52.59;100972.09;5076698;28;45606;-56
2022/09/06 08:08:13;;;;;;;;;6.75;5.00;;;;;23.00;53.28;100967.38;5077395;27;45332;-57
2022/09/06 08:10:38;;;;;;;;;5.25;4.25;;;;;23.03;52.96;100959.09;5064588;28;53069;-55
2022/09/06 08:13:03;;;;;;;;;7.00;6.00;;;;;23.09;53.32;100963.19;5067818;28;45383;-56
2022/09/06 08:15:30;;;;;;;;;5.75;3.25;;;;;23.13;52.58;100953.97;5070028;28;60645;-55
2022/09/06 08:17:55;;;;;;;;;5.75;5.25;;;;;23.17;52.47;100952.75;5066721;28;45607;-56
2022/09/06 08:20:21;;;;;;;;;7.25;5.50;;;;;23.23;52.64;100949.63;5055146;27;48605;-57
2022/09/06 08:22:46;;;;;;;;;7.50;5.00;;;;;23.27;52.31;100947.56;5052624;28;57257;-57
2022/09/06 08:25:12;;;;;;;;;6.75;4.00;;;;;23.30;52.36;100952.66;5051938;28;49212;-57
2022/09/06 08:27:37;;;;;;;;;5.00;5.00;;;;;23.33;52.25;100956.91;5038889;28;45630;-54
2022/09/06 08:30:04;;;;;;;;;6.25;4.00;;;;;23.33;51.74;100949.75;5077885;27;45468;-57
2022/09/06 08:32:32;;;;;;;;;6.75;5.00;;;;;23.37;51.58;100953.03;5068112;28;45484;-57
2022/09/06 08:34:57;;;;;;;;;12.00;8.25;;;;;23.40;51.68;100948.28;5078494;27;47025;-56
2022/09/06 08:37:23;;;;;;;;;9.25;7.75;;;;;23.42;51.41;100945.50;5060490;28;62241;-56
2022/09/06 08:39:48;;;;;;;;;21.00;12.00;;;;;23.47;51.47;100943.34;5078406;27;49622;-56
2022/09/06 08:42:14;;;;;;;;;19.75;12.50;;;;;23.50;51.13;100935.09;5077730;27;45347;-56
2022/09/06 08:44:47;;;;;;;;;28.75;19.00;;;;;23.54;50.64;100931.19;5073596;27;45979;-57
2022/09/06 08:47:17;;;;;;;;;41.00;26.00;;;;;23.60;50.82;100941.41;5050962;28;45789;-57
2022/09/06 08:49:45;;;;;;;;;11.00;8.25;;;;;23.62;50.02;100928.78;5059134;28;45392;-56
2022/09/06 08:52:23;;;;;;;;;20.50;16.75;;;;;23.66;50.23;100919.53;5055052;28;45766;-56
2022/09/06 08:55:19;;;;;;;;;8.25;7.00;;;;;23.72;49.04;100930.72;5070224;27;46325;-56
2022/09/06 08:58:02;;;;;;;;;31.00;24.75;;;;;23.76;48.98;100917.00;5079435;27;45794;-57
2022/09/06 09:00:27;;;;;;;;;19.25;15.75;;;;;23.81;48.77;100906.78;5055689;28;45411;-56
2022/09/06 09:03:03;;;;;;;;;16.50;12.00;;;;;23.85;48.94;100916.28;5057026;28;63643;-56
2022/09/06 09:05:31;;;;;;;;;14.50;11.50;;;;;23.90;48.93;100918.56;5090420;27;45497;-56
2022/09/06 09:08:17;;;;;;;;;11.75;9.75;;;;;23.94;48.92;100919.19;5079297;28;45422;-56
2022/09/06 09:10:48;;;;;;;;;10.75;8.25;;;;;23.99;48.48;100912.50;5079543;28;45371;-56
2022/09/06 09:13:50;;;;;;;;;6.00;5.50;;;;;24.06;48.35;100918.19;5061391;28;45432;-57
2022/09/06 09:16:16;;;;;;;;;6.75;5.75;;;;;24.12;48.56;100936.41;5043632;27;46882;-56
2022/09/06 09:18:44;;;;;;;;;7.00;5.00;;;;;24.17;47.76;100944.91;5076780;28;45420;-56
2022/09/06 09:21:09;;;;;;;;;7.00;6.75;;;;;24.22;48.30;100953.44;5060289;28;45300;-56
2022/09/06 09:23:35;;;;;;;;;6.00;4.00;;;;;24.28;47.21;100956.56;5060237;28;60643;-58
2022/09/06 09:26:09;;;;;;;;;5.00;5.00;;;;;24.31;47.50;100951.81;5044125;28;45418;-57
2022/09/06 09:28:35;;;;;;;;;2.50;2.50;;;;;24.37;46.80;100937.09;5043820;28;45634;-57
2022/09/06 09:31:01;;;;;;;;;3.50;2.00;;;;;24.42;47.03;100942.91;5079540;28;45350;-56
2022/09/06 09:33:32;;;;;;;;;2.75;2.25;;;;;24.46;46.22;100952.38;5057861;28;45603;-55
2022/09/06 09:36:06;;;;;;;;;2.50;2.00;;;;;24.52;46.02;100954.53;5079216;28;45272;-58
2022/09/06 09:38:45;;;;;;;;;4.75;2.25;;;;;24.60;46.27;100964.66;5061230;28;45478;-58
2022/09/06 09:41:25;;;;;;;;;3.00;2.00;;;;;24.66;46.60;100963.28;5059799;28;45409;-56
2022/09/06 09:44:16;;;;;;;;;5.50;3.00;;;;;24.78;46.00;100960.44;5043461;28;45314;-56
2022/09/06 09:46:41;;;;;;;;;4.00;2.00;;;;;24.88;46.25;100960.53;5060969;28;46257;-57
2022/09/06 09:49:33;;;;;;;;;4.25;3.00;;;;;24.93;46.14;100954.78;5075644;28;53723;-56
2022/09/06 09:52:09;;;;;;;;;6.00;3.75;;;;;24.99;45.96;100955.09;5071298;28;45371;-55
2022/09/06 09:54:36;;;;;;;;;5.00;3.50;;;;;25.05;46.32;100951.06;5077546;28;45388;-55
2022/09/06 09:57:07;;;;;;;;;5.00;4.00;;;;;25.09;46.36;100952.50;5077391;28;47281;-56
2022/09/06 09:59:35;;;;;;;;;3.50;3.50;;;;;25.11;45.48;100947.03;5077487;27;45229;-54
2022/09/06 10:02:02;;;;;;;;;5.50;2.25;;;;;25.12;45.99;100938.00;5058016;28;45339;-56
2022/09/06 10:04:36;;;;;;;;;6.00;5.00;;;;;25.11;46.07;100947.88;5060234;28;45569;-56
2022/09/06 10:07:19;;;;;;;;;4.50;4.50;;;;;25.11;45.71;100955.06;5055759;28;46817;-56
2022/09/06 10:09:47;;;;;;;;;6.00;3.00;;;;;25.11;46.72;100958.59;5045260;28;45636;-55
2022/09/06 10:12:17;;;;;;;;;5.50;3.00;;;;;25.09;45.58;100962.34;5082501;27;45410;-53
2022/09/06 10:14:48;;;;;;;;;5.25;4.50;;;;;25.08;46.48;100964.19;5070955;27;45640;-56
2022/09/06 10:17:29;;;;;;;;;6.25;6.00;;;;;25.10;47.13;100969.41;5060605;28;47997;-56
2022/09/06 10:19:54;;;;;;;;;7.00;6.25;;;;;25.10;47.27;100967.59;5072900;27;45258;-55
2022/09/06 10:22:58;;;;;;;;;9.50;8.50;;;;;25.13;47.72;100971.84;5060565;28;45341;-56
2022/09/06 10:25:36;;;;;;;;;10.75;8.75;;;;;25.13;47.31;100961.97;5043350;28;45508;-56
2022/09/06 10:28:27;;;;;;;;;12.00;8.25;;;;;25.20;47.99;100973.03;5070681;28;46583;-54
2022/09/06 10:31:06;;;;;;;;;7.25;6.50;;;;;25.27;47.32;100974.22;5072466;27;45644;-54
2022/09/06 10:34:09;;;;;;;;;10.75;8.00;;;;;25.32;47.18;100961.28;5073751;27;46013;-56
2022/09/06 10:36:37;;;;;;;;;11.00;7.50;;;;;25.35;47.12;100963.69;5075877;27;45285;-56
2022/09/06 10:39:41;;;;;;;;;6.75;6.00;;;;;25.37;46.99;100952.84;5060806;27;46986;-57
2022/09/06 10:42:14;;;;;;;;;9.25;6.75;;;;;25.39;47.13;100940.16;5057268;28;45470;-55
2022/09/06 10:44:49;;;;;;;;;8.25;7.00;;;;;25.37;47.05;100926.91;5063475;28;45437;-55
2022/09/06 10:47:15;;;;;;;;;9.00;7.50;;;;;25.37;46.65;100915.34;5063405;28;45530;-55
2022/09/06 10:49:44;;;;;;;;;8.50;7.00;;;;;25.35;46.66;100898.53;5051199;28;46979;-56
2022/09/06 10:52:14;;;;;;;;;8.25;6.00;;;;;25.31;46.63;100894.44;5094811;27;45389;-56
2022/09/06 10:54:40;;;;;;;;;10.50;8.25;;;;;25.28;46.83;100881.31;5038437;28;45265;-56
2022/09/06 10:57:12;;;;;;;;;17.25;9.00;;;;;25.26;46.82;100888.63;5068321;28;45414;-55
2022/09/06 10:59:41;;;;;;;;;8.75;7.50;;;;;25.22;46.81;100889.88;5071698;27;45393;-56
2022/09/06 11:02:17;;;;;;;;;8.75;7.50;;;;;25.18;47.01;100886.59;5079491;27;45364;-56
2022/09/06 11:04:45;;;;;;;;;8.00;5.50;;;;;25.17;47.54;100888.41;5080362;27;45336;-55
2022/09/06 11:07:20;;;;;;;;;8.50;6.50;;;;;25.15;47.63;100887.69;5073085;27;45459;-56
2022/09/06 11:09:50;;;;;;;;;7.75;7.25;;;;;25.16;47.62;100875.16;5035726;28;48448;-54
2022/09/06 11:12:37;;;;;;;;;8.75;5.75;;;;;25.17;47.73;100877.69;5054427;28;45687;-56
2022/09/06 11:15:05;;;;;;;;;11.00;8.00;;;;;25.18;47.71;100876.72;5063008;28;45492;-54
2022/09/06 11:17:42;;;;;;;;;10.00;7.50;;;;;25.20;47.81;100876.59;5081527;27;45478;-54
2022/09/06 11:20:24;;;;;;;;;33.75;29.75;;;;;25.25;47.78;100881.56;5078570;27;45297;-56
2022/09/06 11:23:18;;;;;;;;;25.50;23.75;;;;;25.29;47.82;100872.31;5087780;27;45229;-54
2022/09/06 11:25:43;;;;;;;;;29.75;23.25;;;;;25.33;48.00;100868.38;5039272;27;45420;-55
2022/09/06 11:28:13;;;;;;;;;17.25;16.25;;;;;25.36;48.03;100876.16;5064986;28;45496;-56
2022/09/06 11:30:43;;;;;;;;;18.25;13.00;;;;;25.37;47.85;100864.44;5056723;28;46271;-56
2022/09/06 11:33:17;;;;;;;;;7.50;7.50;;;;;25.36;47.68;100849.34;5074575;27;45678;-56